createdAt,value
2023-11-24T00:00:42.581Z,41.50
2023-11-24T00:01:52.720Z,41.46
2023-11-24T00:02:42.558Z,41.47
2023-11-24T00:03:42.589Z,41.43
2023-11-24T00:04:42.527Z,41.44
2023-11-24T00:05:42.516Z,41.46
2023-11-24T00:06:42.565Z,41.50
2023-11-24T00:07:42.505Z,41.46
2023-11-24T00:08:42.496Z,41.46
2023-11-24T00:09:42.523Z,41.44
2023-11-24T00:10:42.469Z,41.48
2023-11-24T00:11:42.461Z,41.44
2023-11-24T00:12:42.486Z,41.44
2023-11-24T00:13:42.469Z,41.40
2023-11-24T00:14:42.435Z,41.42
2023-11-24T00:15:42.486Z,41.37
2023-11-24T00:16:42.461Z,41.40
2023-11-24T00:17:42.525Z,41.42
2023-11-24T00:18:42.455Z,41.43
2023-11-24T00:19:42.397Z,41.45
2023-11-24T00:20:42.388Z,41.44
2023-11-24T00:21:42.479Z,41.41
2023-11-24T00:22:42.422Z,41.43
2023-11-24T00:23:42.376Z,41.41
2023-11-24T00:24:42.361Z,41.42
2023-11-24T00:25:42.342Z,41.43
2023-11-24T00:26:42.340Z,41.38
2023-11-24T00:27:42.376Z,41.41
2023-11-24T00:28:42.323Z,41.39
2023-11-24T00:29:42.312Z,41.36
2023-11-24T00:30:42.321Z,41.38
2023-11-24T00:31:42.309Z,41.36
2023-11-24T00:32:42.349Z,41.34
2023-11-24T00:33:42.373Z,41.34
2023-11-24T00:34:42.306Z,41.37
2023-11-24T00:35:42.319Z,41.38
2023-11-24T00:36:42.302Z,41.34
2023-11-24T00:37:42.256Z,41.38
2023-11-24T00:38:42.231Z,41.36
2023-11-24T00:39:42.282Z,41.38
2023-11-24T00:40:42.221Z,41.31
2023-11-24T00:41:42.211Z,41.33
2023-11-24T00:42:42.236Z,41.34
2023-11-24T00:43:42.178Z,41.30
2023-11-24T00:44:42.172Z,41.34
2023-11-24T00:45:42.187Z,41.27
2023-11-24T00:46:42.191Z,41.28
2023-11-24T00:47:42.161Z,41.36
2023-11-24T00:48:42.176Z,41.28
2023-11-24T00:49:42.122Z,41.30
2023-11-24T00:50:42.131Z,41.31
2023-11-24T00:51:42.110Z,41.30
2023-11-24T00:52:42.131Z,41.30
2023-11-24T00:53:42.099Z,41.27
2023-11-24T00:54:42.102Z,41.29
2023-11-24T00:55:42.095Z,41.27
2023-11-24T00:56:42.069Z,41.28
2023-11-24T00:57:42.094Z,41.24
2023-11-24T00:58:42.082Z,41.30
2023-11-24T00:59:42.046Z,41.22
2023-11-24T01:00:42.087Z,41.24
2023-11-24T01:01:42.100Z,41.22
2023-11-24T01:02:42.094Z,41.24
2023-11-24T01:03:42.102Z,41.23
2023-11-24T01:04:42.043Z,41.17
2023-11-24T01:05:41.987Z,41.17
2023-11-24T01:06:42.100Z,41.17
2023-11-24T01:07:41.968Z,41.21
2023-11-24T01:08:41.978Z,41.20
2023-11-24T01:09:41.966Z,41.22
2023-11-24T01:10:41.953Z,41.17
2023-11-24T01:11:41.935Z,41.18
2023-11-24T01:12:41.955Z,41.20
2023-11-24T01:13:41.916Z,41.15
2023-11-24T01:14:41.942Z,41.18
2023-11-24T01:15:41.936Z,41.17
2023-11-24T01:16:41.902Z,41.21
2023-11-24T01:17:41.951Z,41.22
2023-11-24T01:18:41.909Z,41.18
2023-11-24T01:19:41.871Z,41.18
2023-11-24T01:20:41.857Z,41.15
2023-11-24T01:21:41.895Z,41.20
2023-11-24T01:22:41.852Z,41.21
2023-11-24T01:23:41.842Z,41.17
2023-11-24T01:24:41.830Z,41.15
2023-11-24T01:25:41.813Z,41.18
2023-11-24T01:26:41.816Z,41.11
2023-11-24T01:27:41.997Z,41.14
2023-11-24T01:28:42.479Z,41.14
2023-11-24T01:29:41.807Z,41.15
2023-11-24T01:30:41.831Z,41.10
2023-11-24T01:31:41.791Z,41.11
2023-11-24T01:32:41.846Z,41.14
2023-11-24T01:33:41.775Z,41.10
2023-11-24T01:34:41.774Z,41.15
2023-11-24T01:35:41.756Z,41.13
2023-11-24T01:36:41.783Z,41.08
2023-11-24T01:37:41.736Z,41.11
2023-11-24T01:38:41.719Z,41.11
2023-11-24T01:39:41.727Z,41.07
2023-11-24T01:40:41.684Z,41.12
2023-11-24T01:41:41.678Z,41.09
2023-11-24T01:42:41.711Z,41.09
2023-11-24T01:43:41.667Z,41.09
2023-11-24T01:44:41.667Z,41.07
2023-11-24T01:45:41.709Z,41.11
2023-11-24T01:46:41.697Z,41.09
2023-11-24T01:47:41.668Z,41.11
2023-11-24T01:48:41.655Z,41.08
2023-11-24T01:49:41.607Z,41.04
2023-11-24T01:50:41.609Z,41.04
2023-11-24T01:51:41.620Z,41.07
2023-11-24T01:52:41.596Z,41.04
2023-11-24T01:53:41.559Z,41.08
2023-11-24T01:54:41.584Z,41.11
2023-11-24T01:55:41.553Z,41.10
2023-11-24T01:56:41.548Z,41.05
2023-11-24T01:57:41.584Z,41.03
2023-11-24T01:58:41.529Z,41.02
2023-11-24T01:59:41.551Z,40.99
2023-11-24T02:00:41.517Z,41.06
2023-11-24T02:01:41.580Z,41.04
2023-11-24T02:02:41.615Z,41.05
2023-11-24T02:03:41.543Z,41.04
2023-11-24T02:04:41.474Z,41.05
2023-11-24T02:05:41.499Z,41.08
2023-11-24T02:06:41.485Z,41.09
2023-11-24T02:07:41.455Z,41.08
2023-11-24T02:08:41.452Z,41.10
2023-11-24T02:09:41.455Z,41.10
2023-11-24T02:10:41.450Z,41.06
2023-11-24T02:11:41.405Z,40.99
2023-11-24T02:12:41.466Z,41.03
2023-11-24T02:13:41.400Z,41.03
2023-11-24T02:14:41.400Z,41.02
2023-11-24T02:15:41.401Z,40.99
2023-11-24T02:16:41.399Z,40.99
2023-11-24T02:17:41.394Z,41.06
2023-11-24T02:18:41.368Z,41.01
2023-11-24T02:19:41.359Z,41.00
2023-11-24T02:20:41.347Z,41.01
2023-11-24T02:21:41.355Z,40.95
2023-11-24T02:22:41.338Z,40.94
2023-11-24T02:23:41.310Z,40.93
2023-11-24T02:24:41.334Z,40.95
2023-11-24T02:25:41.298Z,41.01
2023-11-24T02:26:41.298Z,40.93
2023-11-24T02:27:41.296Z,40.93
2023-11-24T02:28:41.279Z,40.94
2023-11-24T02:29:41.248Z,40.98
2023-11-24T02:30:41.350Z,40.93
2023-11-24T02:31:41.304Z,40.98
2023-11-24T02:32:41.330Z,40.95
2023-11-24T02:33:41.226Z,40.94
2023-11-24T02:34:41.234Z,40.94
2023-11-24T02:35:41.203Z,40.93
2023-11-24T02:36:41.222Z,40.95
2023-11-24T02:37:41.210Z,40.96
2023-11-24T02:38:41.185Z,40.98
2023-11-24T02:39:41.180Z,40.98
2023-11-24T02:40:41.810Z,40.95
2023-11-24T02:41:41.141Z,40.95
2023-11-24T02:42:41.153Z,40.96
2023-11-24T02:43:41.145Z,40.96
2023-11-24T02:44:41.122Z,40.93
2023-11-24T02:45:41.158Z,40.90
2023-11-24T02:46:41.101Z,40.90
2023-11-24T02:47:41.125Z,40.92
2023-11-24T02:48:41.133Z,40.89
2023-11-24T02:49:41.092Z,40.82
2023-11-24T02:50:41.093Z,40.88
2023-11-24T02:51:41.108Z,40.85
2023-11-24T02:52:41.067Z,40.86
2023-11-24T02:53:41.053Z,40.81
2023-11-24T02:54:41.076Z,40.76
2023-11-24T02:55:41.029Z,40.80
2023-11-24T02:56:41.050Z,40.77
2023-11-24T02:57:41.047Z,40.77
2023-11-24T02:58:41.019Z,40.77
2023-11-24T02:59:40.997Z,40.72
2023-11-24T03:00:41.044Z,40.72
2023-11-24T03:01:41.705Z,40.70
2023-11-24T03:02:41.021Z,40.67
2023-11-24T03:03:41.014Z,40.66
2023-11-24T03:04:40.977Z,40.65
2023-11-24T03:05:40.944Z,40.53
2023-11-24T03:06:41.011Z,40.57
2023-11-24T03:07:40.935Z,40.57
2023-11-24T03:08:40.919Z,40.50
2023-11-24T03:09:40.932Z,40.45
2023-11-24T03:10:40.904Z,40.55
2023-11-24T03:11:40.890Z,40.47
2023-11-24T03:12:40.888Z,40.48
2023-11-24T03:13:40.888Z,40.52
2023-11-24T03:14:40.865Z,40.50
2023-11-24T03:15:40.904Z,40.44
2023-11-24T03:16:41.417Z,40.45
2023-11-24T03:17:40.860Z,40.32
2023-11-24T03:18:40.856Z,40.40
2023-11-24T03:19:40.818Z,40.34
2023-11-24T03:20:40.821Z,40.36
2023-11-24T03:21:40.825Z,40.36
2023-11-24T03:22:40.817Z,40.41
2023-11-24T03:23:40.788Z,40.35
2023-11-24T03:24:40.790Z,40.34
2023-11-24T03:25:40.763Z,40.32
2023-11-24T03:26:40.816Z,40.32
2023-11-24T03:27:40.759Z,40.31
2023-11-24T03:28:40.758Z,40.26
2023-11-24T03:29:40.767Z,40.23
2023-11-24T03:30:40.780Z,40.22
2023-11-24T03:31:40.715Z,40.22
2023-11-24T03:32:40.775Z,40.19
2023-11-24T03:33:40.777Z,40.19
2023-11-24T03:34:40.752Z,40.23
2023-11-24T03:35:40.691Z,40.11
2023-11-24T03:36:40.707Z,40.15
2023-11-24T03:37:40.676Z,40.10
2023-11-24T03:38:40.662Z,40.13
2023-11-24T03:39:40.662Z,40.03
2023-11-24T03:40:41.357Z,40.12
2023-11-24T03:41:40.647Z,40.14
2023-11-24T03:42:40.752Z,40.10
2023-11-24T03:43:40.606Z,40.08
2023-11-24T03:44:40.611Z,40.05
2023-11-24T03:45:40.630Z,40.07
2023-11-24T03:46:40.632Z,40.14
2023-11-24T03:47:40.823Z,40.06
2023-11-24T03:48:40.616Z,40.02
2023-11-24T03:49:40.548Z,40.05
2023-11-24T03:50:40.574Z,40.05
2023-11-24T03:51:40.573Z,39.97
2023-11-24T03:52:40.530Z,40.00
2023-11-24T03:53:40.540Z,39.98
2023-11-24T03:54:40.548Z,40.00
2023-11-24T03:55:40.498Z,39.96
2023-11-24T03:56:40.502Z,39.95
2023-11-24T03:57:40.513Z,39.93
2023-11-24T03:58:40.490Z,39.95
2023-11-24T03:59:40.498Z,39.91
2023-11-24T04:00:40.584Z,39.93
2023-11-24T04:01:40.630Z,39.92
2023-11-24T04:02:40.543Z,39.84
2023-11-24T04:03:40.529Z,39.90
2023-11-24T04:04:40.451Z,39.89
2023-11-24T04:05:40.423Z,39.85
2023-11-24T04:06:40.494Z,39.87
2023-11-24T04:07:40.449Z,39.89
2023-11-24T04:08:40.407Z,39.83
2023-11-24T04:09:40.425Z,39.83
2023-11-24T04:10:40.377Z,39.88
2023-11-24T04:11:40.397Z,39.78
2023-11-24T04:12:40.403Z,39.82
2023-11-24T04:13:40.367Z,39.77
2023-11-24T04:14:40.347Z,39.80
2023-11-24T04:15:40.453Z,39.81
2023-11-24T04:16:40.423Z,39.82
2023-11-24T04:17:40.375Z,39.81
2023-11-24T04:18:40.367Z,39.82
2023-11-24T04:19:40.302Z,39.80
2023-11-24T04:20:40.308Z,39.75
2023-11-24T04:21:40.322Z,39.73
2023-11-24T04:22:40.284Z,39.75
2023-11-24T04:23:40.373Z,39.74
2023-11-24T04:24:40.349Z,39.77
2023-11-24T04:25:40.246Z,39.76
2023-11-24T04:26:40.256Z,39.73
2023-11-24T04:27:40.281Z,39.73
2023-11-24T04:28:40.234Z,39.72
2023-11-24T04:29:40.242Z,39.69
2023-11-24T04:30:40.322Z,39.69
2023-11-24T04:31:40.208Z,39.72
2023-11-24T04:32:40.219Z,39.69
2023-11-24T04:33:40.236Z,39.70
2023-11-24T04:34:40.280Z,39.71
2023-11-24T04:35:40.179Z,39.67
2023-11-24T04:36:40.239Z,39.65
2023-11-24T04:37:40.150Z,39.64
2023-11-24T04:38:40.164Z,39.67
2023-11-24T04:39:40.206Z,39.67
2023-11-24T04:40:40.138Z,39.66
2023-11-24T04:41:40.112Z,39.64
2023-11-24T04:42:40.259Z,39.65
2023-11-24T04:43:40.144Z,39.64
2023-11-24T04:44:40.110Z,39.59
2023-11-24T04:45:40.183Z,39.59
2023-11-24T04:46:40.200Z,39.63
2023-11-24T04:47:40.192Z,39.63
2023-11-24T04:48:40.075Z,39.62
2023-11-24T04:49:40.059Z,39.62
2023-11-24T04:50:40.039Z,39.59
2023-11-24T04:51:40.073Z,39.63
2023-11-24T04:52:40.026Z,39.63
2023-11-24T04:53:41.645Z,39.62
2023-11-24T04:54:40.055Z,39.65
2023-11-24T04:55:40.012Z,39.63
2023-11-24T04:56:39.986Z,39.59
2023-11-24T04:57:40.046Z,39.58
2023-11-24T04:58:39.975Z,39.60
2023-11-24T04:59:39.967Z,39.60
2023-11-24T05:00:40.009Z,39.59
2023-11-24T05:01:39.997Z,39.56
2023-11-24T05:02:40.037Z,39.60
2023-11-24T05:03:40.028Z,39.58
2023-11-24T05:04:40.008Z,39.60
2023-11-24T05:05:39.929Z,39.65
2023-11-24T05:06:39.955Z,39.58
2023-11-24T05:07:39.911Z,39.56
2023-11-24T05:08:39.888Z,39.55
2023-11-24T05:09:39.972Z,39.58
2023-11-24T05:10:39.880Z,39.55
2023-11-24T05:11:39.878Z,39.55
2023-11-24T05:12:39.902Z,39.58
2023-11-24T05:13:39.851Z,39.60
2023-11-24T05:14:39.837Z,39.57
2023-11-24T05:15:39.847Z,39.57
2023-11-24T05:16:39.858Z,39.58
2023-11-24T05:17:39.991Z,39.54
2023-11-24T05:18:39.851Z,39.55
2023-11-24T05:19:39.824Z,39.54
2023-11-24T05:20:39.801Z,39.51
2023-11-24T05:21:53.827Z,39.57
2023-11-24T05:22:39.773Z,39.54
2023-11-24T05:23:39.828Z,39.55
2023-11-24T05:24:39.796Z,39.54
2023-11-24T05:25:39.750Z,39.50
2023-11-24T05:26:39.752Z,39.53
2023-11-24T05:27:39.766Z,39.50
2023-11-24T05:28:39.711Z,39.49
2023-11-24T05:29:39.719Z,39.52
2023-11-24T05:30:39.762Z,39.48
2023-11-24T05:31:39.716Z,39.48
2023-11-24T05:32:39.770Z,39.50
2023-11-24T05:33:39.726Z,39.47
2023-11-24T05:34:39.669Z,39.52
2023-11-24T05:35:39.657Z,39.54
2023-11-24T05:36:39.673Z,39.49
2023-11-24T05:37:39.657Z,39.46
2023-11-24T05:38:39.655Z,39.47
2023-11-24T05:39:39.729Z,39.45
2023-11-24T05:40:39.623Z,39.48
2023-11-24T05:41:39.620Z,39.44
2023-11-24T05:42:39.641Z,39.46
2023-11-24T05:43:39.602Z,39.48
2023-11-24T05:44:39.579Z,39.45
2023-11-24T05:45:39.669Z,39.50
2023-11-24T05:46:39.588Z,39.43
2023-11-24T05:47:39.583Z,39.46
2023-11-24T05:48:39.596Z,39.42
2023-11-24T05:49:39.544Z,39.46
2023-11-24T05:50:39.537Z,39.50
2023-11-24T05:51:40.077Z,39.45
2023-11-24T05:52:39.548Z,39.43
2023-11-24T05:53:39.504Z,39.45
2023-11-24T05:54:39.528Z,39.46
2023-11-24T05:55:39.500Z,39.45
2023-11-24T05:56:39.491Z,39.39
2023-11-24T05:57:39.505Z,39.43
2023-11-24T05:58:39.480Z,39.42
2023-11-24T05:59:39.457Z,39.45
2023-11-24T06:00:39.480Z,39.45
2023-11-24T06:01:39.464Z,39.38
2023-11-24T06:02:39.438Z,39.38
2023-11-24T06:03:39.495Z,39.41
2023-11-24T06:04:39.688Z,39.37
2023-11-24T06:05:39.489Z,39.40
2023-11-24T06:06:39.424Z,39.49
2023-11-24T06:07:39.411Z,39.45
2023-11-24T06:08:39.377Z,39.44
2023-11-24T06:09:39.407Z,39.44
2023-11-24T06:10:39.376Z,39.40
2023-11-24T06:11:39.365Z,39.42
2023-11-24T06:12:39.395Z,39.45
2023-11-24T06:13:39.344Z,39.45
2023-11-24T06:14:39.349Z,39.41
2023-11-24T06:15:39.349Z,39.42
2023-11-24T06:16:39.366Z,39.46
2023-11-24T06:17:39.347Z,39.45
2023-11-24T06:18:39.344Z,39.39
2023-11-24T06:19:39.308Z,39.43
2023-11-24T06:20:39.302Z,39.42
2023-11-24T06:21:39.338Z,39.45
2023-11-24T06:22:39.267Z,39.43
2023-11-24T06:23:39.262Z,39.45
2023-11-24T06:24:39.260Z,39.47
2023-11-24T06:25:39.252Z,39.44
2023-11-24T06:26:39.222Z,39.41
2023-11-24T06:27:39.286Z,39.36
2023-11-24T06:28:39.203Z,39.33
2023-11-24T06:29:39.210Z,39.40
2023-11-24T06:30:39.234Z,39.40
2023-11-24T06:31:39.191Z,39.44
2023-11-24T06:32:39.209Z,39.38
2023-11-24T06:33:39.250Z,39.32
2023-11-24T06:34:39.219Z,39.40
2023-11-24T06:35:39.171Z,39.49
2023-11-24T06:36:39.184Z,39.51
2023-11-24T06:37:39.136Z,39.62
2023-11-24T06:38:39.126Z,39.50
2023-11-24T06:39:39.953Z,39.56
2023-11-24T06:40:39.116Z,39.52
2023-11-24T06:41:39.131Z,39.62
2023-11-24T06:42:39.128Z,39.86
2023-11-24T06:43:39.106Z,39.87
2023-11-24T06:44:39.072Z,39.98
2023-11-24T06:45:39.097Z,40.10
2023-11-24T06:46:39.074Z,40.22
2023-11-24T06:47:39.098Z,40.32
2023-11-24T06:48:39.083Z,40.52
2023-11-24T06:49:39.039Z,40.55
2023-11-24T06:50:39.023Z,40.60
2023-11-24T06:51:39.161Z,40.75
2023-11-24T06:52:39.023Z,40.76
2023-11-24T06:53:39.004Z,41.51
2023-11-24T06:54:39.028Z,41.25
2023-11-24T06:55:38.982Z,41.34
2023-11-24T06:56:38.989Z,41.75
2023-11-24T06:57:39.040Z,41.69
2023-11-24T06:58:38.990Z,41.60
2023-11-24T06:59:38.989Z,41.86
2023-11-24T07:00:39.066Z,36.25
2023-11-24T07:01:39.037Z,35.24
2023-11-24T07:02:38.937Z,35.46
2023-11-24T07:03:38.989Z,32.54
2023-11-24T07:04:38.965Z,31.53
2023-11-24T07:05:38.908Z,30.95
2023-11-24T07:06:38.934Z,30.96
2023-11-24T07:07:38.926Z,30.57
2023-11-24T07:08:38.891Z,30.15
2023-11-24T07:09:38.872Z,29.60
2023-11-24T07:10:38.908Z,29.56
2023-11-24T07:11:38.878Z,29.38
2023-11-24T07:12:38.873Z,29.37
2023-11-24T07:13:38.858Z,29.50
2023-11-24T07:14:38.817Z,29.47
2023-11-24T07:15:38.881Z,29.82
2023-11-24T07:16:38.937Z,29.54
2023-11-24T07:17:38.811Z,29.92
2023-11-24T07:18:38.934Z,29.82
2023-11-24T07:19:38.851Z,29.85
2023-11-24T07:20:38.765Z,29.95
2023-11-24T07:21:38.776Z,30.08
2023-11-24T07:22:38.743Z,30.18
2023-11-24T07:23:38.753Z,30.12
2023-11-24T07:24:38.766Z,30.47
2023-11-24T07:25:38.734Z,31.80
2023-11-24T07:26:38.778Z,33.01
2023-11-24T07:27:38.738Z,33.59
2023-11-24T07:28:38.716Z,34.90
2023-11-24T07:29:38.788Z,36.16
2023-11-24T07:30:38.699Z,36.24
2023-11-24T07:31:38.668Z,36.29
2023-11-24T07:32:38.707Z,36.04
2023-11-24T07:33:38.667Z,36.02
2023-11-24T07:34:38.823Z,35.95
2023-11-24T07:35:38.644Z,35.92
2023-11-24T07:36:38.672Z,35.90
2023-11-24T07:37:38.645Z,35.98
2023-11-24T07:38:38.606Z,35.91
2023-11-24T07:39:38.649Z,36.00
2023-11-24T07:40:38.594Z,36.06
2023-11-24T07:41:38.598Z,36.04
2023-11-24T07:42:38.706Z,36.04
2023-11-24T07:43:38.577Z,36.12
2023-11-24T07:44:38.553Z,36.15
2023-11-24T07:45:38.616Z,36.21
2023-11-24T07:46:38.630Z,36.41
2023-11-24T07:47:38.560Z,36.45
2023-11-24T07:48:38.555Z,36.47
2023-11-24T07:49:38.515Z,36.55
2023-11-24T07:50:38.534Z,36.73
2023-11-24T07:51:38.545Z,37.12
2023-11-24T07:52:38.508Z,37.19
2023-11-24T07:53:38.481Z,36.06
2023-11-24T07:54:38.500Z,35.05
2023-11-24T07:55:38.475Z,33.11
2023-11-24T07:56:38.461Z,32.64
2023-11-24T07:57:38.509Z,34.82
2023-11-24T07:58:38.442Z,35.28
2023-11-24T07:59:38.447Z,36.03
2023-11-24T08:00:38.438Z,36.63
2023-11-24T08:01:38.528Z,36.91
2023-11-24T08:02:38.563Z,37.40
2023-11-24T08:03:38.540Z,37.25
2023-11-24T08:04:38.477Z,37.28
2023-11-24T08:05:38.389Z,37.38
2023-11-24T08:06:38.387Z,37.48
2023-11-24T08:07:38.358Z,37.67
2023-11-24T08:08:38.381Z,37.55
2023-11-24T08:09:38.457Z,37.61
2023-11-24T08:10:38.960Z,37.78
2023-11-24T08:11:38.332Z,37.89
2023-11-24T08:12:38.442Z,38.47
2023-11-24T08:13:38.326Z,38.22
2023-11-24T08:14:38.302Z,38.36
2023-11-24T08:15:38.319Z,38.21
2023-11-24T08:16:38.394Z,38.35
2023-11-24T08:17:38.323Z,38.81
2023-11-24T08:18:38.280Z,38.41
2023-11-24T08:19:38.266Z,38.52
2023-11-24T08:20:38.275Z,38.63
2023-11-24T08:21:38.361Z,38.61
2023-11-24T08:22:38.228Z,38.59
2023-11-24T08:23:38.232Z,38.60
2023-11-24T08:24:38.226Z,37.93
2023-11-24T08:25:38.228Z,36.88
2023-11-24T08:26:38.199Z,37.29
2023-11-24T08:27:38.242Z,36.09
2023-11-24T08:28:38.199Z,36.53
2023-11-24T08:29:38.180Z,35.12
2023-11-24T08:30:38.207Z,34.66
2023-11-24T08:31:38.169Z,34.69
2023-11-24T08:32:38.204Z,35.05
2023-11-24T08:33:38.172Z,35.55
2023-11-24T08:34:38.185Z,34.67
2023-11-24T08:35:38.156Z,35.52
2023-11-24T08:36:38.153Z,36.05
2023-11-24T08:37:38.129Z,36.24
2023-11-24T08:38:38.094Z,36.25
2023-11-24T08:39:38.111Z,36.13
2023-11-24T08:40:38.075Z,36.33
2023-11-24T08:41:40.680Z,36.47
2023-11-24T08:42:38.154Z,36.56
2023-11-24T08:43:38.084Z,36.65
2023-11-24T08:44:40.372Z,36.96
2023-11-24T08:54:04.824Z,41.98
2023-11-24T08:55:05.480Z,41.17
2023-11-24T08:56:04.824Z,40.69
2023-11-24T08:57:04.814Z,40.78
2023-11-24T08:58:04.853Z,40.60
2023-11-24T08:59:04.786Z,40.21
2023-11-24T09:00:04.796Z,40.61
2023-11-24T09:01:04.816Z,40.40
2023-11-24T09:02:04.854Z,40.14
2023-11-24T09:03:04.744Z,40.41
2023-11-24T09:04:04.832Z,41.47
2023-11-24T09:05:04.835Z,40.42
2023-11-24T09:06:04.739Z,40.19
2023-11-24T09:07:04.805Z,40.14
2023-11-24T09:08:04.717Z,40.13
2023-11-24T09:09:04.717Z,40.10
2023-11-24T09:10:04.788Z,40.17
2023-11-24T09:11:04.694Z,40.16
2023-11-24T09:12:04.672Z,40.31
2023-11-24T09:13:04.702Z,40.22
2023-11-24T09:14:04.654Z,40.35
2023-11-24T09:15:04.643Z,40.50
2023-11-24T09:16:04.686Z,40.89
2023-11-24T09:17:04.686Z,40.52
2023-11-24T09:18:04.678Z,40.73
2023-11-24T09:19:04.648Z,40.55
2023-11-24T09:20:04.628Z,40.53
2023-11-24T09:21:04.595Z,40.57
2023-11-24T09:22:04.620Z,40.77
2023-11-24T09:23:04.571Z,41.94
2023-11-24T09:24:04.595Z,41.27
2023-11-24T09:25:04.572Z,41.09
2023-11-24T09:26:04.561Z,41.28
2023-11-24T09:27:04.562Z,41.34
2023-11-24T09:28:04.562Z,41.18
2023-11-24T09:29:04.513Z,41.24
2023-11-24T09:30:04.599Z,41.18
2023-11-24T09:31:09.708Z,41.27
2023-11-24T09:32:04.506Z,41.31
2023-11-24T09:33:04.494Z,41.57
2023-11-24T09:34:04.656Z,41.82
2023-11-24T09:35:04.538Z,41.91
2023-11-24T09:36:04.480Z,42.09
2023-11-24T09:37:04.492Z,41.85
2023-11-24T09:38:04.453Z,41.85
2023-11-24T09:39:04.446Z,42.48
2023-11-24T09:40:04.547Z,42.15
2023-11-24T09:41:04.499Z,41.90
2023-11-24T09:42:04.419Z,41.83
2023-11-24T09:43:04.449Z,41.43
2023-11-24T09:44:04.400Z,41.49
2023-11-24T09:45:04.386Z,41.96
2023-11-24T09:46:04.476Z,41.71
2023-11-24T09:47:04.452Z,41.93
2023-11-24T09:48:04.394Z,41.74
2023-11-24T09:49:04.370Z,42.04
2023-11-24T09:50:04.406Z,42.09
2023-11-24T09:51:04.349Z,42.28
2023-11-24T09:52:04.365Z,42.29
2023-11-24T09:53:04.305Z,42.60
2023-11-24T09:54:04.309Z,42.54
2023-11-24T09:55:04.356Z,42.96
2023-11-24T09:56:04.534Z,43.02
2023-11-24T09:57:04.297Z,42.47
2023-11-24T09:58:04.302Z,42.78
2023-11-24T09:59:04.462Z,42.77
2023-11-24T10:00:04.256Z,42.83
2023-11-24T10:01:04.293Z,42.79
2023-11-24T10:02:06.331Z,42.83
2023-11-24T10:03:04.271Z,42.90
2023-11-24T10:04:04.313Z,42.98
2023-11-24T10:05:04.215Z,42.96
2023-11-24T10:06:04.199Z,42.98
2023-11-24T10:07:04.223Z,43.04
2023-11-24T10:08:04.179Z,43.03
2023-11-24T10:09:04.185Z,43.16
2023-11-24T10:10:04.260Z,43.25
2023-11-24T10:11:04.154Z,43.22
2023-11-24T10:12:04.137Z,43.30
2023-11-24T10:13:04.869Z,44.24
2023-11-24T10:14:04.146Z,43.55
2023-11-24T10:15:04.120Z,43.71
2023-11-24T10:16:04.169Z,43.63
2023-11-24T10:17:04.104Z,43.72
2023-11-24T10:18:04.137Z,43.75
2023-11-24T10:19:04.115Z,43.78
2023-11-24T10:20:04.088Z,43.79
2023-11-24T10:21:04.063Z,43.81
2023-11-24T10:22:04.151Z,43.82
2023-11-24T10:23:04.041Z,43.87
2023-11-24T10:24:04.057Z,43.87
2023-11-24T10:25:04.098Z,43.89
2023-11-24T10:26:04.022Z,43.96
2023-11-24T10:27:04.000Z,43.96
2023-11-24T10:28:04.048Z,44.06
2023-11-24T10:29:03.994Z,44.16
2023-11-24T10:30:03.988Z,44.31
2023-11-24T10:31:04.028Z,44.23
2023-11-24T10:32:03.971Z,44.35
2023-11-24T10:33:04.073Z,44.32
2023-11-24T10:34:04.064Z,44.35
2023-11-24T10:35:04.096Z,44.38
2023-11-24T10:36:03.930Z,44.37
2023-11-24T10:37:04.011Z,44.41
2023-11-24T10:38:04.011Z,44.47
2023-11-24T10:39:03.981Z,44.45
2023-11-24T10:40:03.954Z,44.51
2023-11-24T10:41:05.283Z,44.59
2023-11-24T10:42:03.869Z,44.54
2023-11-24T10:43:03.976Z,44.62
2023-11-24T10:44:03.875Z,44.59
2023-11-24T10:45:03.858Z,44.72
2023-11-24T10:46:03.939Z,44.20
2023-11-24T10:47:03.850Z,43.90
2023-11-24T10:48:03.853Z,44.23
2023-11-24T10:49:03.833Z,42.98
2023-11-24T10:50:03.808Z,43.70
2023-11-24T10:51:03.789Z,39.79
2023-11-24T10:52:03.835Z,34.33
2023-11-24T10:53:03.846Z,32.45
2023-11-24T10:54:03.820Z,31.62
2023-11-24T10:55:03.768Z,31.27
2023-11-24T10:56:03.766Z,31.39
2023-11-24T10:57:03.750Z,32.32
2023-11-24T10:58:03.775Z,33.11
2023-11-24T10:59:03.727Z,33.09
2023-11-24T11:00:03.714Z,33.40
2023-11-24T11:01:04.094Z,33.64
2023-11-24T11:02:03.981Z,33.22
2023-11-24T11:03:03.702Z,33.99
2023-11-24T11:04:03.701Z,33.59
2023-11-24T11:05:03.678Z,34.00
2023-11-24T11:06:03.663Z,34.23
2023-11-24T11:07:03.688Z,34.34
2023-11-24T11:08:03.639Z,33.48
2023-11-24T11:09:03.629Z,33.64
2023-11-24T11:10:03.994Z,33.65
2023-11-24T11:11:03.676Z,33.82
2023-11-24T11:12:03.621Z,33.72
2023-11-24T11:13:03.604Z,32.88
2023-11-24T11:14:05.449Z,32.96
2023-11-24T11:15:03.712Z,33.14
2023-11-24T11:16:03.738Z,32.38
2023-11-24T11:17:03.748Z,32.75
2023-11-24T11:18:03.716Z,33.99
2023-11-24T11:19:03.810Z,34.92
2023-11-24T11:20:05.753Z,35.48
2023-11-24T11:21:03.691Z,35.55
2023-11-24T11:22:03.692Z,35.53
2023-11-24T11:23:03.656Z,35.45
2023-11-24T11:24:03.625Z,35.36
2023-11-24T11:25:03.645Z,35.47
2023-11-24T11:26:06.083Z,35.39
2023-11-24T11:27:03.747Z,35.35
2023-11-24T11:28:03.850Z,35.41
2023-11-24T11:29:03.703Z,35.43
2023-11-24T11:30:03.716Z,35.49
2023-11-24T11:31:03.751Z,35.55
2023-11-24T11:32:03.739Z,35.57
2023-11-24T11:33:03.741Z,35.65
2023-11-24T11:34:03.795Z,35.65
2023-11-24T11:35:03.698Z,35.71
2023-11-24T11:36:03.653Z,35.68
2023-11-24T11:37:03.694Z,35.75
2023-11-24T11:38:03.645Z,35.83
2023-11-24T11:39:03.624Z,35.88
2023-11-24T11:40:03.670Z,35.93
2023-11-24T11:41:03.631Z,36.00
2023-11-24T11:42:03.686Z,35.87
2023-11-24T11:43:03.614Z,36.05
2023-11-24T11:44:03.599Z,36.19
2023-11-24T11:45:03.713Z,36.09
2023-11-24T11:46:03.741Z,36.23
2023-11-24T11:47:03.722Z,36.37
2023-11-24T11:48:03.617Z,36.41
2023-11-24T11:49:03.600Z,36.80
2023-11-24T11:50:03.581Z,36.83
2023-11-24T11:51:03.576Z,36.81
2023-11-24T11:52:03.576Z,36.96
2023-11-24T11:53:03.617Z,37.03
2023-11-24T11:54:03.514Z,37.13
2023-11-24T11:55:03.570Z,37.23
2023-11-24T11:56:03.483Z,37.30
2023-11-24T11:57:03.481Z,37.35
2023-11-24T11:58:03.568Z,37.44
2023-11-24T11:59:03.464Z,37.59
2023-11-24T12:00:03.459Z,37.70
2023-11-24T12:01:03.484Z,37.73
2023-11-24T12:02:03.530Z,37.84
2023-11-24T12:03:03.490Z,37.85
2023-11-24T12:04:03.533Z,37.90
2023-11-24T12:05:03.398Z,38.02
2023-11-24T12:06:03.404Z,38.11
2023-11-24T12:07:03.460Z,38.24
2023-11-24T12:08:03.394Z,38.45
2023-11-24T12:09:03.355Z,38.48
2023-11-24T12:10:03.430Z,38.50
2023-11-24T12:11:03.346Z,38.58
2023-11-24T12:12:03.349Z,38.66
2023-11-24T12:13:03.417Z,38.71
2023-11-24T12:14:03.392Z,38.33
2023-11-24T12:15:03.330Z,38.75
2023-11-24T12:16:03.368Z,38.69
2023-11-24T12:17:03.418Z,38.71
2023-11-24T12:18:03.295Z,38.75
2023-11-24T12:19:03.290Z,38.87
2023-11-24T12:20:03.296Z,38.91
2023-11-24T12:21:03.300Z,39.10
2023-11-24T12:22:03.312Z,39.12
2023-11-24T12:23:03.268Z,39.11
2023-11-24T12:25:03.308Z,39.47
2023-11-24T12:26:03.218Z,39.56
2023-11-24T12:27:03.213Z,39.61
2023-11-24T12:28:03.303Z,39.77
2023-11-24T12:29:03.177Z,39.80
2023-11-24T12:30:03.233Z,39.95
2023-11-24T12:31:03.281Z,39.99
2023-11-24T12:32:03.173Z,40.10
2023-11-24T12:33:03.229Z,40.47
2023-11-24T12:34:03.180Z,40.42
2023-11-24T12:35:03.152Z,40.35
2023-11-24T12:36:03.198Z,40.30
2023-11-24T12:37:03.130Z,40.08
2023-11-24T12:38:03.109Z,40.17
2023-11-24T12:39:03.089Z,40.19
2023-11-24T12:40:03.136Z,40.24
2023-11-24T12:41:03.094Z,40.23
2023-11-24T12:42:03.100Z,40.26
2023-11-24T12:43:03.127Z,40.12
2023-11-24T12:44:03.067Z,40.23
2023-11-24T12:45:03.053Z,40.32
2023-11-24T12:46:03.202Z,40.37
2023-11-24T12:47:03.055Z,40.33
2023-11-24T12:48:03.066Z,40.35
2023-11-24T12:49:03.113Z,40.30
2023-11-24T12:50:03.167Z,40.34
2023-11-24T12:51:03.026Z,40.35
2023-11-24T12:52:03.010Z,40.39
2023-11-24T12:53:02.989Z,40.35
2023-11-24T12:54:02.977Z,40.35
2023-11-24T12:55:03.233Z,40.33
2023-11-24T12:56:02.966Z,40.28
2023-11-24T12:57:02.956Z,40.32
2023-11-24T12:58:02.963Z,40.34
2023-11-24T12:59:02.929Z,40.45
2023-11-24T13:00:02.921Z,40.35
2023-11-24T13:01:02.934Z,40.42
2023-11-24T13:02:02.938Z,40.47